Eagle, Alaska
Current Conditions -  °F | °C
As of 9:53 PM on Monday 20 Oct 2014 (Local Time) from PAEG Reporting Station
Overcast Overcast  
Wind Chill: 30°   Ceiling: 6000
Heat Index: 30°   Visibility: 10mi
Dew Point: 23°   Wind: 3mph
Humidity: 75%   Direction: 260°W
Pressure: 29.27"   Gusts: NA
Location:  64.78°N, 141.21°W
Report Text: PAEG 210553Z AUTO 26003KT 10SM SCT050 OVC060 M01/M05 A2927 RMK AO2 SLP922 T10111050 10006 21011 51009 TSNO
Loading
Personal Weather Stations






























Interactive Weather Map
Tropical Storm Tracking
New forecast layout! Learn more

10-Day Weather Forecast

Advertisements
Track Severe Weather on mobile